createdAt,value
2022-09-11T00:01:33.366Z,85.49
2022-09-11T00:04:03.240Z,85.02
2022-09-11T00:06:31.367Z,85.81
2022-09-11T00:09:01.531Z,85.41
2022-09-11T00:11:33.104Z,85.27
2022-09-11T00:14:01.854Z,85.04
2022-09-11T00:16:31.582Z,85.40
2022-09-11T00:19:04.602Z,85.46
2022-09-11T00:21:33.107Z,84.89
2022-09-11T00:24:01.200Z,84.92
2022-09-11T00:26:29.425Z,85.75
2022-09-11T00:28:57.795Z,84.87
2022-09-11T00:31:28.256Z,84.84
2022-09-11T00:33:56.473Z,84.71
2022-09-11T00:36:27.230Z,84.78
2022-09-11T00:38:55.842Z,83.96
2022-09-11T00:41:25.565Z,84.36
2022-09-11T00:44:00.219Z,83.70
2022-09-11T00:46:34.440Z,83.44
2022-09-11T00:49:04.972Z,83.09
2022-09-11T00:51:36.165Z,83.63
2022-09-11T00:54:05.088Z,82.93
2022-09-11T00:56:35.932Z,83.35
2022-09-11T00:59:04.648Z,83.69
2022-09-11T01:01:33.284Z,83.66
2022-09-11T01:04:03.653Z,83.39
2022-09-11T01:06:32.180Z,83.89
2022-09-11T01:09:01.488Z,83.48
2022-09-11T01:11:44.317Z,83.82
2022-09-11T01:14:22.899Z,83.65
2022-09-11T01:16:54.683Z,83.81
2022-09-11T01:19:32.645Z,83.77
2022-09-11T01:22:17.206Z,83.35
2022-09-11T01:24:56.119Z,82.66
2022-09-11T01:27:47.008Z,83.24
2022-09-11T01:30:18.183Z,83.25
2022-09-11T01:33:05.147Z,82.66
2022-09-11T01:35:43.008Z,82.99
2022-09-11T01:38:16.805Z,83.21
2022-09-11T01:40:49.969Z,83.93
2022-09-11T01:43:23.262Z,83.40
2022-09-11T01:45:52.921Z,83.97
2022-09-11T01:48:24.478Z,83.88
2022-09-11T01:50:54.201Z,84.51
2022-09-11T01:53:26.980Z,84.50
2022-09-11T01:55:59.195Z,83.62
2022-09-11T01:58:29.932Z,83.91
2022-09-11T02:01:04.044Z,84.20
2022-09-11T02:03:37.096Z,85.07
2022-09-11T02:06:12.011Z,84.61
2022-09-11T02:08:47.076Z,83.67
2022-09-11T02:11:19.341Z,83.46
2022-09-11T02:13:54.661Z,83.05
2022-09-11T02:16:36.264Z,83.17
2022-09-11T02:19:06.268Z,83.64
2022-09-11T02:21:34.513Z,83.56
2022-09-11T02:24:03.070Z,83.62
2022-09-11T02:26:32.932Z,84.11
2022-09-11T02:29:02.687Z,83.55
2022-09-11T02:31:30.886Z,84.17
2022-09-11T02:33:59.598Z,83.76
2022-09-11T02:36:39.153Z,83.29
2022-09-11T02:39:21.967Z,83.24
2022-09-11T02:42:02.498Z,83.52
2022-09-11T02:44:38.717Z,84.39
2022-09-11T02:47:12.692Z,84.94
2022-09-11T02:49:50.620Z,84.48
2022-09-11T02:52:24.423Z,83.86
2022-09-11T02:54:55.273Z,83.64
2022-09-11T02:57:28.994Z,84.10
2022-09-11T03:00:00.958Z,84.05
2022-09-11T03:02:31.195Z,85.34
2022-09-11T03:04:59.381Z,85.38
2022-09-11T03:07:27.496Z,85.53
2022-09-11T03:09:55.495Z,85.18
2022-09-11T03:12:27.137Z,85.27
2022-09-11T03:14:55.170Z,85.76
2022-09-11T03:17:25.499Z,85.63
2022-09-11T03:19:53.517Z,85.51
2022-09-11T03:22:21.706Z,85.57
2022-09-11T03:24:49.751Z,85.89
2022-09-11T03:27:18.324Z,85.75
2022-09-11T03:29:46.515Z,85.68
2022-09-11T03:32:16.206Z,85.90
2022-09-11T03:34:47.017Z,86.07
2022-09-11T03:37:15.916Z,85.72
2022-09-11T03:39:44.196Z,85.61
2022-09-11T03:42:13.073Z,85.77
2022-09-11T03:44:41.543Z,85.30
2022-09-11T03:47:12.751Z,85.48
2022-09-11T03:49:40.862Z,86.03
2022-09-11T03:52:10.256Z,85.40
2022-09-11T03:54:39.812Z,85.10
2022-09-11T03:57:09.668Z,85.11
2022-09-11T03:59:39.377Z,84.82
2022-09-11T04:02:07.610Z,85.06
2022-09-11T04:04:37.086Z,85.65
2022-09-11T04:07:05.543Z,85.47
2022-09-11T04:09:35.656Z,85.94
2022-09-11T04:12:04.023Z,85.85
2022-09-11T04:14:32.289Z,86.62
2022-09-11T04:17:00.498Z,86.61
2022-09-11T04:19:30.293Z,85.74
2022-09-11T04:21:58.395Z,86.10
2022-09-11T04:24:26.490Z,85.81
2022-09-11T04:27:00.499Z,85.68
2022-09-11T04:29:30.149Z,86.92
2022-09-11T04:31:58.414Z,86.63
2022-09-11T04:34:30.451Z,86.85
2022-09-11T04:36:59.148Z,87.60
2022-09-11T04:39:30.811Z,87.96
2022-09-11T04:42:02.011Z,87.95
2022-09-11T04:44:30.598Z,88.31
2022-09-11T04:46:59.218Z,89.07
2022-09-11T04:49:27.278Z,89.73
2022-09-11T04:51:55.462Z,89.19
2022-09-11T04:54:25.263Z,89.17
2022-09-11T04:56:54.705Z,88.53
2022-09-11T04:59:24.701Z,88.78
2022-09-11T05:02:00.624Z,89.09
2022-09-11T05:04:29.940Z,88.33
2022-09-11T05:06:58.163Z,88.66
2022-09-11T05:09:27.636Z,89.07
2022-09-11T05:11:57.184Z,88.82
2022-09-11T05:14:30.182Z,89.16
2022-09-11T05:16:58.394Z,89.25
2022-09-11T05:19:28.966Z,89.43
2022-09-11T05:21:56.960Z,89.27
2022-09-11T05:24:26.140Z,88.95
2022-09-11T05:26:55.345Z,89.29
2022-09-11T05:29:29.326Z,89.08
2022-09-11T05:32:05.977Z,89.04
2022-09-11T05:34:34.179Z,89.23
2022-09-11T05:37:03.081Z,89.62
2022-09-11T05:39:35.850Z,90.05
2022-09-11T05:42:05.423Z,89.87
2022-09-11T05:44:37.047Z,90.18
2022-09-11T05:47:06.735Z,90.13
2022-09-11T05:49:34.767Z,89.88
2022-09-11T05:52:03.910Z,89.86
2022-09-11T05:54:35.033Z,90.36
2022-09-11T05:57:07.599Z,90.05
2022-09-11T05:59:38.061Z,90.55
2022-09-11T06:02:07.764Z,91.24
2022-09-11T06:04:44.273Z,91.38
2022-09-11T06:07:13.291Z,91.63
2022-09-11T06:09:43.521Z,91.47
2022-09-11T06:12:12.470Z,91.13
2022-09-11T06:14:44.500Z,91.32
2022-09-11T06:17:14.533Z,91.69
2022-09-11T06:19:42.547Z,91.39
2022-09-11T06:22:10.858Z,92.33
2022-09-11T06:24:42.215Z,92.93
2022-09-11T06:27:10.440Z,93.38
2022-09-11T06:29:44.107Z,93.57
2022-09-11T06:32:14.344Z,93.04
2022-09-11T06:34:42.758Z,93.71
2022-09-11T06:37:13.955Z,93.12
2022-09-11T06:39:42.330Z,93.18
2022-09-11T06:42:13.716Z,94.03
2022-09-11T06:44:41.991Z,94.08
2022-09-11T06:47:13.489Z,94.00
2022-09-11T06:49:42.852Z,94.37
2022-09-11T06:52:37.253Z,93.88
2022-09-11T06:55:14.500Z,94.22
2022-09-11T06:57:48.632Z,94.53
2022-09-11T07:00:21.686Z,94.20
2022-09-11T07:02:49.858Z,93.97
2022-09-11T07:05:19.371Z,93.53
2022-09-11T07:07:50.479Z,94.53
2022-09-11T07:10:18.774Z,94.33
2022-09-11T07:12:54.131Z,94.61
2022-09-11T07:15:22.969Z,94.63
2022-09-11T07:17:51.164Z,95.07
2022-09-11T07:20:22.325Z,94.55
2022-09-11T07:22:50.507Z,94.80
2022-09-11T07:25:19.192Z,95.24
2022-09-11T07:27:48.088Z,94.63
2022-09-11T07:30:16.707Z,95.28
2022-09-11T07:32:47.968Z,95.41
2022-09-11T07:35:21.485Z,95.27
2022-09-11T07:37:53.052Z,95.67
2022-09-11T07:40:25.913Z,95.72
2022-09-11T07:42:54.580Z,95.45
2022-09-11T07:45:23.259Z,94.87
2022-09-11T07:47:52.481Z,94.90
2022-09-11T07:50:24.375Z,94.84
2022-09-11T07:52:55.820Z,95.17
2022-09-11T07:55:23.937Z,94.58
2022-09-11T07:57:54.139Z,94.33
2022-09-11T08:00:24.154Z,94.59
2022-09-11T08:03:03.732Z,94.71
2022-09-11T08:05:36.194Z,93.93
2022-09-11T08:08:06.053Z,94.09
2022-09-11T08:10:38.829Z,93.72
2022-09-11T08:13:09.400Z,93.33
2022-09-11T08:15:38.747Z,93.42
2022-09-11T08:18:08.631Z,93.50
2022-09-11T08:20:36.849Z,93.54
2022-09-11T08:23:06.323Z,93.86
2022-09-11T08:25:36.506Z,93.81
2022-09-11T08:28:06.223Z,94.31
2022-09-11T08:30:34.671Z,94.00
2022-09-11T08:33:02.847Z,93.06
2022-09-11T08:35:30.970Z,92.99
2022-09-11T08:37:59.227Z,92.81
2022-09-11T08:40:30.411Z,92.82
2022-09-11T08:43:03.274Z,92.38
2022-09-11T08:45:35.699Z,92.48
2022-09-11T08:48:07.111Z,92.13
2022-09-11T08:50:39.361Z,93.00
2022-09-11T08:53:12.632Z,92.62
2022-09-11T08:55:45.591Z,93.46
2022-09-11T08:58:21.391Z,94.22
2022-09-11T09:00:54.673Z,93.58
2022-09-11T09:03:49.872Z,92.90
2022-09-11T09:06:27.938Z,93.13
2022-09-11T09:09:02.875Z,92.80
2022-09-11T09:11:38.018Z,93.72
2022-09-11T09:14:18.979Z,94.83
2022-09-11T09:16:52.169Z,94.92
2022-09-11T09:19:27.973Z,94.77
2022-09-11T09:22:03.850Z,94.85
2022-09-11T09:24:37.699Z,94.04
2022-09-11T09:27:10.250Z,94.21
2022-09-11T09:29:40.682Z,94.14
2022-09-11T09:32:15.402Z,94.48
2022-09-11T09:34:45.934Z,94.16
2022-09-11T09:37:17.988Z,94.26
2022-09-11T09:39:47.039Z,93.61
2022-09-11T09:42:32.340Z,94.31
2022-09-11T09:45:20.311Z,94.49
2022-09-11T09:47:49.286Z,95.44
2022-09-11T09:50:20.322Z,94.81
2022-09-11T09:52:50.051Z,95.66
2022-09-11T09:55:19.677Z,96.26
2022-09-11T09:57:49.358Z,96.29
2022-09-11T10:00:19.891Z,96.74
2022-09-11T10:02:54.238Z,96.29
2022-09-11T10:05:27.290Z,95.17
2022-09-11T10:07:57.195Z,95.59
2022-09-11T10:10:30.090Z,96.02
2022-09-11T10:13:19.139Z,95.90
2022-09-11T10:15:49.875Z,96.18
2022-09-11T10:18:40.159Z,96.87
2022-09-11T10:21:23.089Z,94.17
2022-09-11T10:23:53.531Z,94.85
2022-09-11T10:26:30.190Z,93.18
2022-09-11T10:29:02.813Z,92.77
2022-09-11T10:31:30.959Z,92.27
2022-09-11T10:34:00.855Z,91.92
2022-09-11T10:36:31.218Z,90.96
2022-09-11T10:39:00.382Z,90.26
2022-09-11T10:41:32.230Z,90.18
2022-09-11T10:44:03.189Z,89.56
2022-09-11T10:46:41.113Z,86.78
2022-09-11T10:49:20.216Z,89.08
2022-09-11T10:52:02.934Z,86.93
2022-09-11T10:54:46.956Z,87.49
2022-09-11T10:57:19.312Z,85.86
2022-09-11T11:00:07.790Z,87.67
2022-09-11T11:02:37.124Z,88.49
2022-09-11T11:05:08.155Z,88.20
2022-09-11T11:07:50.266Z,87.88
2022-09-11T11:10:26.337Z,88.17
2022-09-11T11:13:05.183Z,87.94
2022-09-11T11:15:46.655Z,86.88
2022-09-11T11:18:24.023Z,86.01
2022-09-11T11:20:59.460Z,84.88
2022-09-11T11:23:43.200Z,85.80
2022-09-11T11:26:22.604Z,85.84
2022-09-11T11:29:05.296Z,83.52
2022-09-11T11:31:51.345Z,84.88
2022-09-11T11:34:32.495Z,84.77
2022-09-11T11:37:06.018Z,83.69
2022-09-11T11:39:39.331Z,82.48
2022-09-11T11:42:12.324Z,81.56
2022-09-11T11:44:45.798Z,81.20
2022-09-11T11:47:16.867Z,82.35
2022-09-11T11:49:52.708Z,80.71
2022-09-11T11:52:28.207Z,80.53
2022-09-11T11:55:01.794Z,79.57
2022-09-11T11:57:33.866Z,79.23
2022-09-11T12:00:07.500Z,80.27
2022-09-11T12:02:46.859Z,80.21
2022-09-11T12:05:17.947Z,80.03
2022-09-11T12:07:48.237Z,81.62
2022-09-11T12:10:27.978Z,80.41
2022-09-11T12:12:59.267Z,79.84
2022-09-11T12:15:30.293Z,78.75
2022-09-11T12:18:04.710Z,76.55
2022-09-11T12:20:37.451Z,78.13
2022-09-11T12:23:08.283Z,77.91
2022-09-11T12:26:05.167Z,77.47
2022-09-11T12:28:34.744Z,76.84
2022-09-11T12:31:06.111Z,76.57
2022-09-11T12:34:02.670Z,76.48
2022-09-11T12:36:36.150Z,75.81
2022-09-11T12:39:07.652Z,76.27
2022-09-11T12:41:36.722Z,74.54
2022-09-11T12:44:06.509Z,76.39
2022-09-11T12:47:14.504Z,76.38
2022-09-11T12:49:53.113Z,74.19
2022-09-11T12:52:30.801Z,75.72
2022-09-11T12:55:00.526Z,73.76
2022-09-11T12:57:30.828Z,74.18
2022-09-11T13:00:14.125Z,72.24
2022-09-11T13:02:44.132Z,72.90
2022-09-11T13:05:19.907Z,70.28
2022-09-11T13:07:50.825Z,71.44
2022-09-11T13:10:33.479Z,71.85
2022-09-11T13:13:06.575Z,74.23
2022-09-11T13:15:37.350Z,73.56
2022-09-11T13:18:27.267Z,72.38
2022-09-11T13:21:04.766Z,69.28
2022-09-11T13:23:32.867Z,69.79
2022-09-11T13:26:02.791Z,72.05
2022-09-11T13:28:31.743Z,69.31
2022-09-11T13:31:02.810Z,70.71
2022-09-11T13:33:32.208Z,71.49
2022-09-11T13:36:02.969Z,68.48
2022-09-11T13:38:33.342Z,70.46
2022-09-11T13:41:03.979Z,69.08
2022-09-11T13:43:34.196Z,70.97
2022-09-11T13:46:16.818Z,71.46
2022-09-11T13:48:45.750Z,69.51
2022-09-11T13:51:16.711Z,70.68
2022-09-11T13:53:46.447Z,71.43
2022-09-11T13:56:21.387Z,70.81
2022-09-11T13:58:53.329Z,70.87
2022-09-11T14:01:21.629Z,68.04
2022-09-11T14:03:50.112Z,68.65
2022-09-11T14:06:21.252Z,67.95
2022-09-11T14:08:51.597Z,69.67
2022-09-11T14:11:24.304Z,70.15
2022-09-11T14:13:56.146Z,68.31
2022-09-11T14:16:26.873Z,66.20
2022-09-11T14:18:56.617Z,68.11
2022-09-11T14:21:27.987Z,63.51
2022-09-11T14:23:57.301Z,64.94
2022-09-11T14:26:27.148Z,66.08
2022-09-11T14:29:53.235Z,66.73
2022-09-11T14:32:32.307Z,62.06
2022-09-11T14:35:00.644Z,61.00
2022-09-11T14:37:35.025Z,62.75
2022-09-11T14:40:06.908Z,62.77
2022-09-11T14:42:36.197Z,62.39
2022-09-11T14:45:09.288Z,61.53
2022-09-11T14:47:38.157Z,61.53
2022-09-11T14:50:12.040Z,60.06
2022-09-11T14:52:42.676Z,61.73
2022-09-11T14:55:14.930Z,62.46
2022-09-11T14:57:43.344Z,63.38
2022-09-11T15:00:14.965Z,63.75
2022-09-11T15:02:42.994Z,63.84
2022-09-11T15:05:16.133Z,62.67
2022-09-11T15:07:46.034Z,62.69
2022-09-11T15:10:15.056Z,64.32
2022-09-11T15:12:44.533Z,63.79
2022-09-11T15:15:16.179Z,63.90
2022-09-11T15:17:44.451Z,65.36
2022-09-11T15:20:12.513Z,63.99
2022-09-11T15:22:40.556Z,64.51
2022-09-11T15:25:10.379Z,63.67
2022-09-11T15:27:38.463Z,65.49
2022-09-11T15:30:07.419Z,66.03
2022-09-11T15:32:35.431Z,65.80
2022-09-11T15:35:03.810Z,62.24
2022-09-11T15:37:31.798Z,64.32
2022-09-11T15:40:01.001Z,65.22
2022-09-11T15:42:30.947Z,64.11
2022-09-11T15:44:59.029Z,65.02
2022-09-11T15:47:27.688Z,64.42
2022-09-11T15:49:55.715Z,65.85
2022-09-11T15:52:30.175Z,65.46
2022-09-11T15:54:59.164Z,64.29
2022-09-11T15:57:27.852Z,64.67
2022-09-11T15:59:57.250Z,64.30
2022-09-11T16:02:25.350Z,63.89
2022-09-11T16:04:54.080Z,62.95
2022-09-11T16:07:22.590Z,64.17
2022-09-11T16:09:50.653Z,64.39
2022-09-11T16:12:18.669Z,65.11
2022-09-11T16:14:46.730Z,65.01
2022-09-11T16:17:20.498Z,65.79
2022-09-11T16:19:48.512Z,65.43
2022-09-11T16:22:16.522Z,65.02
2022-09-11T16:24:44.629Z,65.38
2022-09-11T16:27:12.908Z,64.79
2022-09-11T16:30:20.398Z,63.65
2022-09-11T16:32:38.167Z,64.80
2022-09-11T16:35:08.376Z,64.63
2022-09-11T16:37:38.483Z,65.32
2022-09-11T16:40:08.437Z,65.08
2022-09-11T16:42:36.830Z,64.79
2022-09-11T16:45:05.221Z,64.95
2022-09-11T16:47:34.877Z,63.87
2022-09-11T16:50:08.221Z,64.63
2022-09-11T16:52:37.135Z,65.11
2022-09-11T16:55:06.006Z,64.37
2022-09-11T16:57:34.630Z,65.17
2022-09-11T17:00:02.931Z,65.39
2022-09-11T17:02:31.472Z,65.60
2022-09-11T17:05:00.812Z,64.19
2022-09-11T17:07:28.806Z,65.97
2022-09-11T17:09:56.825Z,66.56
2022-09-11T17:12:24.963Z,67.28
2022-09-11T17:14:52.976Z,67.27
2022-09-11T17:17:20.981Z,67.25
2022-09-11T17:19:51.152Z,67.35
2022-09-11T17:22:20.604Z,67.47
2022-09-11T17:24:48.595Z,67.51
2022-09-11T17:27:16.632Z,67.45
2022-09-11T17:29:45.035Z,67.21
2022-09-11T17:32:27.694Z,67.80
2022-09-11T17:34:56.115Z,67.47
2022-09-11T17:37:27.063Z,67.48
2022-09-11T17:39:55.470Z,67.69
2022-09-11T17:42:23.841Z,67.88
2022-09-11T17:44:51.890Z,67.98
2022-09-11T17:47:19.870Z,67.98
2022-09-11T17:49:49.944Z,68.59
2022-09-11T17:52:19.090Z,68.78
2022-09-11T17:54:49.039Z,68.58
2022-09-11T17:57:17.071Z,68.40
2022-09-11T17:59:45.135Z,68.63
2022-09-11T18:02:14.432Z,68.70
2022-09-11T18:04:43.844Z,68.38
2022-09-11T18:07:12.249Z,68.51
2022-09-11T18:09:40.331Z,68.68
2022-09-11T18:12:10.056Z,69.45
2022-09-11T18:14:38.569Z,69.28
2022-09-11T18:17:06.748Z,69.48
2022-09-11T18:19:34.727Z,69.67
2022-09-11T18:22:02.757Z,69.71
2022-09-11T18:24:31.311Z,69.98
2022-09-11T18:27:01.005Z,70.30
2022-09-11T18:29:30.713Z,70.33
2022-09-11T18:32:00.193Z,70.16
2022-09-11T18:34:29.171Z,70.35
2022-09-11T18:36:57.513Z,70.31
2022-09-11T18:39:25.873Z,70.81
2022-09-11T18:41:53.905Z,71.11
2022-09-11T18:44:25.232Z,71.32
2022-09-11T18:46:55.501Z,71.46
2022-09-11T18:49:23.963Z,71.68
2022-09-11T18:51:52.183Z,71.82
2022-09-11T18:54:21.324Z,71.78
2022-09-11T18:56:50.312Z,71.81
2022-09-11T18:59:19.411Z,71.80
2022-09-11T19:01:47.615Z,71.81
2022-09-11T19:04:42.707Z,72.10
2022-09-11T19:07:11.952Z,72.34
2022-09-11T19:09:45.161Z,72.43
2022-09-11T19:12:15.880Z,72.97
2022-09-11T19:14:44.240Z,73.06
2022-09-11T19:17:12.280Z,73.41
2022-09-11T19:19:40.236Z,73.57
2022-09-11T19:22:09.596Z,73.90
2022-09-11T19:24:38.277Z,73.99
2022-09-11T19:27:06.484Z,74.04
2022-09-11T19:29:34.554Z,74.01
2022-09-11T19:32:03.118Z,74.34
2022-09-11T19:34:33.262Z,74.43
2022-09-11T19:37:04.172Z,74.48
2022-09-11T19:39:33.498Z,74.87
2022-09-11T19:42:02.938Z,75.38
2022-09-11T19:44:32.626Z,75.07
2022-09-11T19:47:00.654Z,75.94
2022-09-11T19:49:29.824Z,75.95
2022-09-11T19:51:58.266Z,76.46
2022-09-11T19:54:26.740Z,77.01
2022-09-11T19:56:56.091Z,76.81
2022-09-11T19:59:24.224Z,76.99
2022-09-11T20:01:52.292Z,76.31
2022-09-11T20:04:20.336Z,76.42
2022-09-11T20:09:32.322Z,76.66
2022-09-11T20:12:01.995Z,77.09
2022-09-11T20:14:31.140Z,76.46
2022-09-11T20:17:00.876Z,76.62
2022-09-11T20:19:29.202Z,76.88
2022-09-11T20:21:57.330Z,76.69
2022-09-11T20:24:25.472Z,77.07
2022-09-11T20:26:53.947Z,77.93
2022-09-11T20:29:23.350Z,77.88
2022-09-11T20:31:51.365Z,78.30
2022-09-11T20:34:22.006Z,77.90
2022-09-11T20:36:50.032Z,78.11
2022-09-11T20:39:20.062Z,77.89
2022-09-11T20:41:48.051Z,78.15
2022-09-11T20:44:16.190Z,78.17
2022-09-11T20:46:47.509Z,78.43
2022-09-11T20:49:15.724Z,78.06
2022-09-11T20:51:43.917Z,78.48
2022-09-11T20:54:11.937Z,78.21
2022-09-11T20:56:39.998Z,78.36
2022-09-11T20:59:08.094Z,78.99
2022-09-11T21:01:36.235Z,78.97
2022-09-11T21:04:06.063Z,78.98
2022-09-11T21:06:35.298Z,78.97
2022-09-11T21:09:06.701Z,79.47
2022-09-11T21:11:35.103Z,79.32
2022-09-11T21:14:03.154Z,79.40
2022-09-11T21:16:31.338Z,79.60
2022-09-11T21:19:01.141Z,79.71
2022-09-11T21:21:30.942Z,79.74
2022-09-11T21:24:01.313Z,79.87
2022-09-11T21:26:30.028Z,80.50
2022-09-11T21:28:58.804Z,80.37
2022-09-11T21:31:27.326Z,80.32
2022-09-11T21:33:55.623Z,80.26
2022-09-11T21:36:23.938Z,80.79
2022-09-11T21:38:53.429Z,80.40
2022-09-11T21:41:21.452Z,80.03
2022-09-11T21:43:49.644Z,80.04
2022-09-11T21:46:17.758Z,80.60
2022-09-11T21:48:45.806Z,81.06
2022-09-11T21:51:15.665Z,80.50
2022-09-11T21:53:45.833Z,80.14
2022-09-11T21:56:19.899Z,80.19
2022-09-11T21:58:48.118Z,80.15
2022-09-11T22:01:16.198Z,80.46
2022-09-11T22:03:44.657Z,80.67
2022-09-11T22:06:13.504Z,80.79
2022-09-11T22:08:43.172Z,81.11
2022-09-11T22:11:12.085Z,80.74
2022-09-11T22:13:41.818Z,81.10
2022-09-11T22:16:11.375Z,81.10
2022-09-11T22:18:40.873Z,80.81
2022-09-11T22:21:09.584Z,80.46
2022-09-11T22:23:37.977Z,80.91
2022-09-11T22:26:07.688Z,80.83
2022-09-11T22:28:35.751Z,81.05
2022-09-11T22:31:09.223Z,81.17
2022-09-11T22:33:38.637Z,80.49
2022-09-11T22:36:11.260Z,80.15
2022-09-11T22:38:39.294Z,80.97
2022-09-11T22:41:07.971Z,80.85
2022-09-11T22:43:36.207Z,80.94
2022-09-11T22:46:04.795Z,80.63
2022-09-11T22:48:34.335Z,80.57
2022-09-11T22:51:02.682Z,80.61
2022-09-11T22:53:31.346Z,81.13
2022-09-11T22:55:59.724Z,81.38
2022-09-11T22:58:30.591Z,81.87
2022-09-11T23:00:59.842Z,81.49
2022-09-11T23:03:28.211Z,81.76
2022-09-11T23:06:15.811Z,81.20
2022-09-11T23:08:45.782Z,80.71
2022-09-11T23:11:16.048Z,81.29
2022-09-11T23:13:44.614Z,81.24
2022-09-11T23:16:14.912Z,81.22
2022-09-11T23:18:43.354Z,80.97
2022-09-11T23:21:13.375Z,80.75
2022-09-11T23:23:42.982Z,80.60
2022-09-11T23:26:12.487Z,80.79
2022-09-11T23:28:40.609Z,80.77
2022-09-11T23:31:12.213Z,81.81
2022-09-11T23:33:40.292Z,81.12
2022-09-11T23:36:09.487Z,80.95
2022-09-11T23:38:38.982Z,81.40
2022-09-11T23:41:07.433Z,81.22
2022-09-11T23:43:35.553Z,81.21
2022-09-11T23:46:03.645Z,80.85
2022-09-11T23:48:31.682Z,81.47
2022-09-11T23:51:01.107Z,81.18
2022-09-11T23:53:29.637Z,81.32
2022-09-11T23:55:59.606Z,81.38
2022-09-11T23:58:27.647Z,80.56
